createdAt,value
2018-06-07T00:00:47.912Z,22.65
2018-06-07T00:01:47.393Z,22.65
2018-06-07T00:02:47.961Z,22.68
2018-06-07T00:03:47.982Z,22.7
2018-06-07T00:04:47.987Z,22.68
2018-06-07T00:05:48.036Z,22.57
2018-06-07T00:06:48.062Z,22.6
2018-06-07T00:07:48.082Z,22.54
2018-06-07T00:08:48.103Z,22.5
2018-06-07T00:09:48.127Z,22.54
2018-06-07T00:10:48.141Z,22.53
2018-06-07T00:11:47.924Z,22.5
2018-06-07T00:12:48.220Z,22.43
2018-06-07T00:13:48.236Z,22.44
2018-06-07T00:14:48.254Z,22.59
2018-06-07T00:15:48.058Z,22.51
2018-06-07T00:16:48.023Z,22.45
2018-06-07T00:17:48.067Z,22.57
2018-06-07T00:18:48.332Z,22.51
2018-06-07T00:19:48.363Z,22.48
2018-06-07T00:20:48.144Z,22.44
2018-06-07T00:21:48.438Z,22.48
2018-06-07T00:22:48.471Z,22.39
2018-06-07T00:23:48.475Z,22.39
2018-06-07T00:24:48.516Z,22.41
2018-06-07T00:25:48.519Z,22.35
2018-06-07T00:26:48.274Z,22.36
2018-06-07T00:27:48.301Z,22.36
2018-06-07T00:28:48.313Z,22.36
2018-06-07T00:29:48.612Z,22.36
2018-06-07T00:30:48.660Z,22.29
2018-06-07T00:31:48.690Z,22.26
2018-06-07T00:32:48.150Z,22.28
2018-06-07T00:33:48.746Z,22.23
2018-06-07T00:34:48.747Z,22.18
2018-06-07T00:35:48.498Z,22.2
2018-06-07T00:36:48.811Z,22.1
2018-06-07T00:37:48.801Z,22.11
2018-06-07T00:38:48.594Z,22.11
2018-06-07T00:39:48.878Z,22.06
2018-06-07T00:40:48.345Z,22.04
2018-06-07T00:41:48.651Z,21.99
2018-06-07T00:42:48.683Z,21.96
2018-06-07T00:43:48.954Z,21.99
2018-06-07T00:44:48.994Z,21.96
2018-06-07T00:45:48.991Z,21.99
2018-06-07T00:46:49.038Z,22.04
2018-06-07T00:47:49.067Z,21.96
2018-06-07T00:48:49.096Z,21.98
2018-06-07T00:49:49.096Z,21.91
2018-06-07T00:50:48.888Z,21.91
2018-06-07T00:51:49.147Z,21.91
2018-06-07T00:52:49.193Z,21.88
2018-06-07T00:53:49.182Z,21.95
2018-06-07T00:54:48.954Z,21.82
2018-06-07T00:55:49.254Z,21.77
2018-06-07T00:56:49.288Z,21.83
2018-06-07T00:57:49.305Z,21.76
2018-06-07T00:58:49.319Z,21.79
2018-06-07T00:59:49.083Z,21.77
2018-06-07T01:00:49.383Z,21.7
2018-06-07T01:01:49.121Z,21.69
2018-06-07T01:02:49.415Z,21.72
2018-06-07T01:03:49.462Z,21.7
2018-06-07T01:04:49.473Z,21.73
2018-06-07T01:05:49.493Z,21.6
2018-06-07T01:06:49.518Z,21.6
2018-06-07T01:07:49.274Z,21.61
2018-06-07T01:08:49.019Z,21.62
2018-06-07T01:09:49.040Z,21.58
2018-06-07T01:10:49.073Z,21.54
2018-06-07T01:11:49.359Z,21.52
2018-06-07T01:12:49.382Z,21.6
2018-06-07T01:13:49.416Z,21.55
2018-06-07T01:14:49.693Z,21.57
2018-06-07T01:15:49.721Z,21.6
2018-06-07T01:16:49.772Z,21.6
2018-06-07T01:17:49.783Z,21.55
2018-06-07T01:18:49.539Z,21.52
2018-06-07T01:19:49.826Z,21.51
2018-06-07T01:20:49.841Z,21.52
2018-06-07T01:21:49.605Z,21.42
2018-06-07T01:22:49.619Z,21.42
2018-06-07T01:23:49.659Z,21.46
2018-06-07T01:24:49.415Z,21.45
2018-06-07T01:25:49.964Z,21.43
2018-06-07T01:26:50.036Z,21.36
2018-06-07T01:27:50.019Z,21.33
2018-06-07T01:28:50.028Z,21.4
2018-06-07T01:29:50.079Z,21.4
2018-06-07T01:30:49.819Z,21.35
2018-06-07T01:31:50.100Z,21.39
2018-06-07T01:32:49.577Z,21.29
2018-06-07T01:33:50.173Z,21.33
2018-06-07T01:34:50.192Z,21.35
2018-06-07T01:35:49.659Z,21.32
2018-06-07T01:36:49.699Z,21.35
2018-06-07T01:37:50.338Z,21.33
2018-06-07T01:38:50.028Z,21.27
2018-06-07T01:39:50.298Z,21.24
2018-06-07T01:40:50.042Z,21.22
2018-06-07T01:41:50.346Z,21.25
2018-06-07T01:42:50.119Z,21.22
2018-06-07T01:43:50.389Z,21.21
2018-06-07T01:44:50.483Z,21.18
2018-06-07T01:45:50.440Z,21.21
2018-06-07T01:46:50.465Z,21.21
2018-06-07T01:47:50.493Z,21.24
2018-06-07T01:48:50.512Z,21.12
2018-06-07T01:49:50.282Z,21.12
2018-06-07T01:50:50.642Z,21.14
2018-06-07T01:51:50.600Z,21.05
2018-06-07T01:52:50.603Z,21.03
2018-06-07T01:53:50.627Z,21.03
2018-06-07T01:54:50.647Z,21.06
2018-06-07T01:55:50.700Z,21.02
2018-06-07T01:56:50.700Z,20.97
2018-06-07T01:57:50.739Z,20.97
2018-06-07T01:58:50.486Z,21.02
2018-06-07T01:59:50.769Z,20.92
2018-06-07T02:00:50.808Z,20.96
2018-06-07T02:01:50.538Z,20.9
2018-06-07T02:02:50.829Z,20.93
2018-06-07T02:03:50.886Z,20.95
2018-06-07T02:04:50.903Z,20.92
2018-06-07T02:05:50.916Z,20.95
2018-06-07T02:06:50.664Z,20.84
2018-06-07T02:07:50.698Z,20.84
2018-06-07T02:08:50.973Z,20.87
2018-06-07T02:09:51.000Z,20.84
2018-06-07T02:10:50.743Z,20.84
2018-06-07T02:11:51.066Z,20.77
2018-06-07T02:12:51.056Z,20.85
2018-06-07T02:13:51.086Z,20.84
2018-06-07T02:14:50.843Z,20.8
2018-06-07T02:15:51.153Z,20.77
2018-06-07T02:16:51.168Z,20.81
2018-06-07T02:17:51.191Z,20.81
2018-06-07T02:18:51.185Z,20.77
2018-06-07T02:19:50.964Z,20.78
2018-06-07T02:20:50.989Z,20.75
2018-06-07T02:21:51.270Z,20.74
2018-06-07T02:22:51.309Z,20.69
2018-06-07T02:23:51.308Z,20.77
2018-06-07T02:24:51.377Z,20.67
2018-06-07T02:25:51.380Z,20.7
2018-06-07T02:26:51.417Z,20.62
2018-06-07T02:27:51.147Z,20.63
2018-06-07T02:28:51.163Z,20.65
2018-06-07T02:29:51.464Z,20.6
2018-06-07T02:30:51.495Z,20.65
2018-06-07T02:31:51.504Z,20.51
2018-06-07T02:32:51.523Z,20.52
2018-06-07T02:33:51.584Z,20.58
2018-06-07T02:34:51.562Z,20.55
2018-06-07T02:35:51.611Z,20.48
2018-06-07T02:36:51.638Z,20.43
2018-06-07T02:37:51.673Z,20.47
2018-06-07T02:38:51.405Z,20.47
2018-06-07T02:39:51.715Z,20.48
2018-06-07T02:40:51.711Z,20.43
2018-06-07T02:41:51.473Z,20.41
2018-06-07T02:42:51.495Z,20.52
2018-06-07T02:43:51.804Z,20.4
2018-06-07T02:44:51.810Z,20.37
2018-06-07T02:45:51.839Z,20.41
2018-06-07T02:46:51.863Z,20.41
2018-06-07T02:47:51.606Z,20.43
2018-06-07T02:48:51.913Z,20.47
2018-06-07T02:49:51.930Z,20.29
2018-06-07T02:50:51.953Z,20.43
2018-06-07T02:51:51.981Z,20.31
2018-06-07T02:52:51.996Z,20.36
2018-06-07T02:53:51.748Z,20.36
2018-06-07T02:54:51.752Z,20.41
2018-06-07T02:55:51.785Z,20.39
2018-06-07T02:56:51.801Z,20.34
2018-06-07T02:57:51.849Z,20.31
2018-06-07T02:58:51.859Z,20.34
2018-06-07T02:59:51.890Z,20.25
2018-06-07T03:00:52.156Z,20.28
2018-06-07T03:01:52.189Z,20.24
2018-06-07T03:02:52.219Z,20.26
2018-06-07T03:03:52.236Z,20.28
2018-06-07T03:04:51.726Z,20.28
2018-06-07T03:05:52.285Z,20.34
2018-06-07T03:06:52.034Z,20.25
2018-06-07T03:07:52.321Z,20.34
2018-06-07T03:08:52.352Z,20.25
2018-06-07T03:09:52.382Z,20.31
2018-06-07T03:10:51.874Z,20.32
2018-06-07T03:11:52.167Z,20.29
2018-06-07T03:12:52.168Z,20.26
2018-06-07T03:13:52.205Z,20.28
2018-06-07T03:14:52.218Z,20.24
2018-06-07T03:15:52.517Z,20.29
2018-06-07T03:16:52.280Z,20.29
2018-06-07T03:17:52.300Z,20.11
2018-06-07T03:18:52.601Z,20.18
2018-06-07T03:19:52.340Z,20.16
2018-06-07T03:20:52.367Z,20.19
2018-06-07T03:21:52.384Z,20.13
2018-06-07T03:22:52.151Z,20.16
2018-06-07T03:23:52.728Z,20.14
2018-06-07T03:24:52.450Z,20.19
2018-06-07T03:25:52.748Z,20.21
2018-06-07T03:26:52.782Z,20.13
2018-06-07T03:27:52.809Z,20.19
2018-06-07T03:28:52.527Z,20.14
2018-06-07T03:29:52.845Z,20.18
2018-06-07T03:30:52.850Z,20.14
2018-06-07T03:31:52.889Z,20.19
2018-06-07T03:32:52.648Z,20.13
2018-06-07T03:33:52.655Z,20.16
2018-06-07T03:34:52.948Z,20.13
2018-06-07T03:35:52.975Z,20.11
2018-06-07T03:36:53.001Z,20.18
2018-06-07T03:37:53.018Z,20.16
2018-06-07T03:38:53.029Z,20.14
2018-06-07T03:39:52.792Z,20.09
2018-06-07T03:40:52.794Z,20.13
2018-06-07T03:41:52.833Z,20.06
2018-06-07T03:42:52.875Z,20.14
2018-06-07T03:43:52.605Z,20.14
2018-06-07T03:44:53.188Z,20.14
2018-06-07T03:45:53.201Z,20.13
2018-06-07T03:46:52.945Z,20.1
2018-06-07T03:47:53.228Z,20.13
2018-06-07T03:48:53.276Z,20.06
2018-06-07T03:49:53.007Z,20.13
2018-06-07T03:50:53.295Z,20.11
2018-06-07T03:51:53.313Z,20.14
2018-06-07T03:52:53.340Z,20.19
2018-06-07T03:53:53.376Z,20.09
2018-06-07T03:54:53.400Z,20.11
2018-06-07T03:55:53.162Z,20.09
2018-06-07T03:56:53.177Z,20.14
2018-06-07T03:57:53.450Z,20.14
2018-06-07T03:58:53.493Z,20.09
2018-06-07T03:59:53.239Z,20.04
2018-06-07T04:00:53.534Z,20.03
2018-06-07T04:01:53.546Z,20.07
2018-06-07T04:02:53.566Z,20.06
2018-06-07T04:03:53.600Z,20.21
2018-06-07T04:04:53.619Z,20.06
2018-06-07T04:05:53.354Z,20.02
2018-06-07T04:06:53.670Z,20.04
2018-06-07T04:07:53.678Z,20.03
2018-06-07T04:08:53.428Z,20.13
2018-06-07T04:09:53.472Z,20.09
2018-06-07T04:10:53.767Z,20.06
2018-06-07T04:11:53.790Z,20.07
2018-06-07T04:12:53.870Z,20.06
2018-06-07T04:13:53.830Z,20.04
2018-06-07T04:14:53.858Z,20.04
2018-06-07T04:15:53.874Z,20.09
2018-06-07T04:16:53.902Z,20
2018-06-07T04:17:53.900Z,20.04
2018-06-07T04:18:53.965Z,20.06
2018-06-07T04:19:53.960Z,20.04
2018-06-07T04:20:53.974Z,20.02
2018-06-07T04:21:53.996Z,20
2018-06-07T04:22:54.030Z,20.02
2018-06-07T04:23:54.049Z,20
2018-06-07T04:24:54.086Z,20.02
2018-06-07T04:25:54.086Z,20.04
2018-06-07T04:26:54.117Z,20.03
2018-06-07T04:27:54.136Z,20.02
2018-06-07T04:28:54.163Z,20.02
2018-06-07T04:29:53.903Z,20
2018-06-07T04:30:54.209Z,20.02
2018-06-07T04:31:53.955Z,20.04
2018-06-07T04:32:54.250Z,20.03
2018-06-07T04:33:53.983Z,20
2018-06-07T04:34:54.307Z,20.07
2018-06-07T04:35:53.773Z,20.02
2018-06-07T04:36:54.058Z,20.02
2018-06-07T04:37:53.862Z,20.03
2018-06-07T04:38:54.376Z,20.03
2018-06-07T04:39:54.136Z,20.04
2018-06-07T04:40:53.893Z,20.06
2018-06-07T04:41:54.164Z,20.03
2018-06-07T04:42:54.194Z,19.94
2018-06-07T04:43:54.263Z,20
2018-06-07T04:44:54.523Z,20.03
2018-06-07T04:45:54.530Z,19.99
2018-06-07T04:46:54.578Z,20
2018-06-07T04:47:54.314Z,20.07
2018-06-07T04:48:54.330Z,20.04
2018-06-07T04:49:54.619Z,20.03
2018-06-07T04:50:54.640Z,20
2018-06-07T04:51:54.413Z,20
2018-06-07T04:52:54.430Z,19.89
2018-06-07T04:53:54.439Z,20.02
2018-06-07T04:54:54.485Z,20
2018-06-07T04:55:54.792Z,19.99
2018-06-07T04:56:54.787Z,20.03
2018-06-07T04:57:54.793Z,20
2018-06-07T04:58:54.582Z,20.03
2018-06-07T04:59:54.558Z,20.06
2018-06-07T05:00:54.899Z,20
2018-06-07T05:01:54.633Z,19.99
2018-06-07T05:02:54.900Z,20.02
2018-06-07T05:03:54.936Z,19.99
2018-06-07T05:04:54.952Z,20.04
2018-06-07T05:05:54.968Z,20.03
2018-06-07T05:06:54.872Z,20.02
2018-06-07T05:07:54.766Z,20.04
2018-06-07T05:08:54.784Z,20
2018-06-07T05:09:55.080Z,20.02
2018-06-07T05:10:54.846Z,20.03
2018-06-07T05:11:55.136Z,20.02
2018-06-07T05:12:55.179Z,20.04
2018-06-07T05:13:54.890Z,20.04
2018-06-07T05:14:55.165Z,20.06
2018-06-07T05:15:55.212Z,20.04
2018-06-07T05:16:55.246Z,20.11
2018-06-07T05:17:54.992Z,20.04
2018-06-07T05:18:55.278Z,20.04
2018-06-07T05:19:55.299Z,20.07
2018-06-07T05:20:55.052Z,20.11
2018-06-07T05:21:55.344Z,20.11
2018-06-07T05:22:55.349Z,20.1
2018-06-07T05:23:55.381Z,20.1
2018-06-07T05:24:55.536Z,20.13
2018-06-07T05:25:55.154Z,20.11
2018-06-07T05:26:55.190Z,20.16
2018-06-07T05:27:55.481Z,20.09
2018-06-07T05:28:55.476Z,20.13
2018-06-07T05:29:55.517Z,20.16
2018-06-07T05:30:55.550Z,20.14
2018-06-07T05:31:55.288Z,20.11
2018-06-07T05:32:55.616Z,20.16
2018-06-07T05:33:55.345Z,20.18
2018-06-07T05:34:55.378Z,20.13
2018-06-07T05:35:55.670Z,20.16
2018-06-07T05:36:55.662Z,20.19
2018-06-07T05:37:55.698Z,20.13
2018-06-07T05:38:55.609Z,20.16
2018-06-07T05:39:55.799Z,20.16
2018-06-07T05:40:55.764Z,20.16
2018-06-07T05:41:55.834Z,20.26
2018-06-07T05:42:55.536Z,20.26
2018-06-07T05:43:55.839Z,20.29
2018-06-07T05:44:55.870Z,20.31
2018-06-07T05:45:55.893Z,20.29
2018-06-07T05:46:55.917Z,20.32
2018-06-07T05:47:55.659Z,20.31
2018-06-07T05:48:55.664Z,20.31
2018-06-07T05:49:55.986Z,20.34
2018-06-07T05:50:55.993Z,20.4
2018-06-07T05:51:56.161Z,20.32
2018-06-07T05:52:56.032Z,20.43
2018-06-07T05:53:56.102Z,20.31
2018-06-07T05:54:55.812Z,20.31
2018-06-07T05:55:56.187Z,20.5
2018-06-07T05:56:56.157Z,20.39
2018-06-07T05:57:56.162Z,20.5
2018-06-07T05:58:56.174Z,20.51
2018-06-07T05:59:55.912Z,20.47
2018-06-07T06:00:56.016Z,20.4
2018-06-07T06:01:55.953Z,20.44
2018-06-07T06:02:56.065Z,20.51
2018-06-07T06:03:55.993Z,20.55
2018-06-07T06:04:56.308Z,20.59
2018-06-07T06:05:56.346Z,20.55
2018-06-07T06:06:56.345Z,20.59
2018-06-07T06:07:56.105Z,20.58
2018-06-07T06:08:56.387Z,20.65
2018-06-07T06:09:56.523Z,20.59
2018-06-07T06:10:56.448Z,20.62
2018-06-07T06:11:56.175Z,20.6
2018-06-07T06:12:56.209Z,20.72
2018-06-07T06:13:56.227Z,20.75
2018-06-07T06:14:56.248Z,20.74
2018-06-07T06:15:56.550Z,20.81
2018-06-07T06:16:56.312Z,20.77
2018-06-07T06:17:56.586Z,20.78
2018-06-07T06:18:56.625Z,20.81
2018-06-07T06:19:56.391Z,20.75
2018-06-07T06:20:56.388Z,20.84
2018-06-07T06:21:56.674Z,20.82
2018-06-07T06:22:56.441Z,20.8
2018-06-07T06:23:56.193Z,20.84
2018-06-07T06:24:56.471Z,20.78
2018-06-07T06:25:56.768Z,20.88
2018-06-07T06:26:56.810Z,20.82
2018-06-07T06:27:57.030Z,20.78
2018-06-07T06:28:56.851Z,20.87
2018-06-07T06:29:56.858Z,20.9
2018-06-07T06:30:56.886Z,20.97
2018-06-07T06:31:56.892Z,20.96
2018-06-07T06:32:56.949Z,20.96
2018-06-07T06:33:56.667Z,20.9
2018-06-07T06:34:56.705Z,20.92
2018-06-07T06:35:56.993Z,20.95
2018-06-07T06:36:57.021Z,20.88
2018-06-07T06:37:57.038Z,21.02
2018-06-07T06:38:57.066Z,21.05
2018-06-07T06:39:57.088Z,20.97
2018-06-07T06:40:56.829Z,21.02
2018-06-07T06:41:57.180Z,20.99
2018-06-07T06:42:56.895Z,21.09
2018-06-07T06:43:57.184Z,21.11
2018-06-07T06:44:57.199Z,21.07
2018-06-07T06:45:57.205Z,21.12
2018-06-07T06:46:57.244Z,21.14
2018-06-07T06:47:57.283Z,21.15
2018-06-07T06:48:57.017Z,21.2
2018-06-07T06:49:57.340Z,21.21
2018-06-07T06:50:57.321Z,21.22
2018-06-07T06:51:57.362Z,21.21
2018-06-07T06:52:57.395Z,21.21
2018-06-07T06:53:57.140Z,21.29
2018-06-07T06:54:57.424Z,21.3
2018-06-07T06:55:57.467Z,21.32
2018-06-07T06:56:57.478Z,21.3
2018-06-07T06:57:57.508Z,21.29
2018-06-07T06:58:57.507Z,21.46
2018-06-07T06:59:57.528Z,21.33
2018-06-07T07:00:57.561Z,21.43
2018-06-07T07:01:57.580Z,21.42
2018-06-07T07:02:57.351Z,21.45
2018-06-07T07:03:57.621Z,21.54
2018-06-07T07:04:57.655Z,21.61
2018-06-07T07:05:57.691Z,21.55
2018-06-07T07:06:57.697Z,21.58
2018-06-07T07:07:57.728Z,21.66
2018-06-07T07:08:57.765Z,21.73
2018-06-07T07:09:57.772Z,21.69
2018-06-07T07:10:57.816Z,21.82
2018-06-07T07:11:57.540Z,21.8
2018-06-07T07:12:57.826Z,21.83
2018-06-07T07:13:57.604Z,21.95
2018-06-07T07:14:57.607Z,21.98
2018-06-07T07:15:57.915Z,21.99
2018-06-07T07:16:57.926Z,22.02
2018-06-07T07:17:57.953Z,22.06
2018-06-07T07:18:57.698Z,22.18
2018-06-07T07:19:57.985Z,22.14
2018-06-07T07:20:58.016Z,22.3
2018-06-07T07:21:58.025Z,22.23
2018-06-07T07:22:58.067Z,22.36
2018-06-07T07:23:58.085Z,22.35
2018-06-07T07:24:57.834Z,22.45
2018-06-07T07:25:58.124Z,22.48
2018-06-07T07:26:58.146Z,22.47
2018-06-07T07:27:57.624Z,22.54
2018-06-07T07:28:58.203Z,22.57
2018-06-07T07:29:57.968Z,22.6
2018-06-07T07:30:58.243Z,22.72
2018-06-07T07:31:58.259Z,22.69
2018-06-07T07:32:58.023Z,22.88
2018-06-07T07:33:58.317Z,22.94
2018-06-07T07:34:58.342Z,22.9
2018-06-07T07:35:58.104Z,23.02
2018-06-07T07:36:58.490Z,23.09
2018-06-07T07:37:58.155Z,23.1
2018-06-07T07:38:58.163Z,23.2
2018-06-07T07:39:58.456Z,23.31
2018-06-07T07:40:58.465Z,23.31
2018-06-07T07:41:58.497Z,23.36
2018-06-07T07:42:58.541Z,23.47
2018-06-07T07:43:58.272Z,23.5
2018-06-07T07:44:58.039Z,23.61
2018-06-07T07:45:58.604Z,23.66
2018-06-07T07:46:58.634Z,23.71
2018-06-07T07:47:58.641Z,23.68
2018-06-07T07:48:58.642Z,23.76
2018-06-07T07:49:58.672Z,23.87
2018-06-07T07:50:58.440Z,23.95
2018-06-07T07:51:58.484Z,24.02
2018-06-07T07:52:58.778Z,24.16
2018-06-07T07:53:58.788Z,24.16
2018-06-07T07:54:58.547Z,24.26
2018-06-07T07:55:58.829Z,24.24
2018-06-07T07:56:58.866Z,24.4
2018-06-07T07:57:58.869Z,24.45
2018-06-07T07:58:58.883Z,24.53
2018-06-07T07:59:58.664Z,24.55
2018-06-07T08:00:58.945Z,24.61
2018-06-07T08:01:58.973Z,24.8
2018-06-07T08:02:58.994Z,24.78
2018-06-07T08:03:59.020Z,24.91
2018-06-07T08:04:59.099Z,24.95
2018-06-07T08:05:58.787Z,24.98
2018-06-07T08:06:59.101Z,25.03
2018-06-07T08:07:58.848Z,25.03
2018-06-07T08:08:59.160Z,25.16
2018-06-07T08:09:58.888Z,25.23
2018-06-07T08:10:59.198Z,25.29
2018-06-07T08:11:59.207Z,25.43
2018-06-07T08:12:59.223Z,25.48
2018-06-07T08:13:59.257Z,25.58
2018-06-07T08:14:59.297Z,25.62
2018-06-07T08:15:59.322Z,25.63
2018-06-07T08:16:59.074Z,25.75
2018-06-07T08:17:59.360Z,25.81
2018-06-07T08:18:59.383Z,25.9
2018-06-07T08:19:59.419Z,25.95
2018-06-07T08:20:59.430Z,26.13
2018-06-07T08:21:59.470Z,26.22
2018-06-07T08:22:59.214Z,26.22
2018-06-07T08:23:59.509Z,26.29
2018-06-07T08:24:59.533Z,26.36
2018-06-07T08:25:59.570Z,26.43
2018-06-07T08:26:59.577Z,26.55
2018-06-07T08:27:59.609Z,26.59
2018-06-07T08:28:59.639Z,26.65
2018-06-07T08:29:59.925Z,26.75
2018-06-07T08:30:59.682Z,26.84
2018-06-07T08:31:59.704Z,26.92
2018-06-07T08:32:59.463Z,26.97
2018-06-07T08:33:59.759Z,27.12
2018-06-07T08:34:59.771Z,27.12
2018-06-07T08:35:59.804Z,27.22
2018-06-07T08:36:59.290Z,27.3
2018-06-07T08:37:59.856Z,27.44
2018-06-07T08:38:59.878Z,27.49
2018-06-07T08:39:59.623Z,27.51
2018-06-07T08:40:59.930Z,27.59
2018-06-07T08:41:59.955Z,27.68
2018-06-07T08:42:59.977Z,27.7
2018-06-07T08:44:00.026Z,27.87
2018-06-07T08:45:00.047Z,27.89
2018-06-07T08:45:59.778Z,28.04
2018-06-07T08:47:00.078Z,28.08
2018-06-07T08:47:59.822Z,28.12
2018-06-07T08:48:59.859Z,28.17
2018-06-07T08:50:00.157Z,28.33
2018-06-07T08:50:59.641Z,28.41
2018-06-07T08:52:00.209Z,28.47
2018-06-07T08:52:59.969Z,28.51
2018-06-07T08:54:00.272Z,28.59
2018-06-07T08:55:00.268Z,28.69
2018-06-07T08:56:00.041Z,28.78
2018-06-07T08:57:00.332Z,28.86
2018-06-07T08:58:00.103Z,28.91
2018-06-07T08:59:00.478Z,28.96
2018-06-07T09:00:00.407Z,29.01
2018-06-07T09:01:00.440Z,29.14
2018-06-07T09:02:00.463Z,29.27
2018-06-07T09:03:00.488Z,29.27
2018-06-07T09:04:00.235Z,29.39
2018-06-07T09:05:00.534Z,29.5
2018-06-07T09:06:00.554Z,29.51
2018-06-07T09:07:00.361Z,29.69
2018-06-07T09:08:00.619Z,29.75
2018-06-07T09:09:00.649Z,29.87
2018-06-07T09:10:00.413Z,29.91
2018-06-07T09:11:00.449Z,29.97
2018-06-07T09:12:00.461Z,30.12
2018-06-07T09:13:00.764Z,30.21
2018-06-07T09:14:00.795Z,30.19
2018-06-07T09:15:00.803Z,30.37
2018-06-07T09:16:00.858Z,30.47
2018-06-07T09:17:00.883Z,30.54
2018-06-07T09:18:00.913Z,30.68
2018-06-07T09:19:00.929Z,30.77
2018-06-07T09:20:00.935Z,30.78
2018-06-07T09:21:00.702Z,30.87
2018-06-07T09:22:01.002Z,31
2018-06-07T09:23:01.022Z,31.06
2018-06-07T09:24:00.772Z,31.14
2018-06-07T09:25:01.105Z,31.28
2018-06-07T09:26:00.625Z,31.34
2018-06-07T09:27:01.131Z,31.42
2018-06-07T09:28:00.895Z,31.47
2018-06-07T09:29:01.167Z,31.59
2018-06-07T09:30:00.965Z,31.59
2018-06-07T09:31:01.232Z,31.61
2018-06-07T09:32:01.263Z,31.76
2018-06-07T09:33:01.313Z,31.9
2018-06-07T09:34:01.059Z,31.93
2018-06-07T09:35:00.810Z,32.04
2018-06-07T09:36:01.128Z,32.14
2018-06-07T09:37:01.405Z,32.18
2018-06-07T09:38:01.476Z,32.29
2018-06-07T09:39:01.193Z,32.38
2018-06-07T09:40:01.227Z,32.43
2018-06-07T09:41:01.250Z,32.48
2018-06-07T09:42:01.562Z,32.68
2018-06-07T09:43:01.302Z,32.7
2018-06-07T09:44:01.589Z,32.85
2018-06-07T09:45:01.358Z,32.78
2018-06-07T09:46:01.397Z,32.93
2018-06-07T09:47:01.891Z,33.02
2018-06-07T09:48:01.724Z,33
2018-06-07T09:49:01.740Z,33.14
2018-06-07T09:50:01.766Z,33.22
2018-06-07T09:51:01.537Z,33.37
2018-06-07T09:52:01.568Z,33.37
2018-06-07T09:53:02.105Z,33.4
2018-06-07T09:54:01.900Z,33.59
2018-06-07T09:55:01.910Z,33.62
2018-06-07T09:56:01.962Z,33.65
2018-06-07T09:57:01.979Z,33.68
2018-06-07T09:58:02.060Z,33.8
2018-06-07T09:59:02.050Z,33.9
2018-06-07T10:00:01.517Z,33.98
2018-06-07T10:01:02.103Z,34.05
2018-06-07T10:02:01.849Z,34.13
2018-06-07T10:03:02.157Z,34.23
2018-06-07T10:04:02.168Z,34.32
2018-06-07T10:05:02.209Z,34.38
2018-06-07T10:06:02.236Z,34.51
2018-06-07T10:07:02.258Z,34.55
2018-06-07T10:08:02.293Z,34.52
2018-06-07T10:09:02.340Z,34.7
2018-06-07T10:10:02.364Z,34.7
2018-06-07T10:11:01.844Z,34.75
2018-06-07T10:12:02.430Z,34.77
2018-06-07T10:13:02.460Z,34.83
2018-06-07T10:14:02.203Z,34.96
2018-06-07T10:15:02.503Z,35
2018-06-07T10:16:02.515Z,35
2018-06-07T10:17:02.770Z,35.11
2018-06-07T10:18:02.603Z,35.14
2018-06-07T10:19:02.604Z,35.24
2018-06-07T10:20:02.668Z,35.37
2018-06-07T10:21:02.423Z,35.33
2018-06-07T10:22:02.446Z,35.45
2018-06-07T10:23:02.755Z,35.48
2018-06-07T10:24:02.781Z,35.55
2018-06-07T10:25:02.541Z,35.63
2018-06-07T10:26:02.557Z,35.76
2018-06-07T10:27:02.618Z,35.79
2018-06-07T10:28:02.912Z,35.97
2018-06-07T10:29:02.646Z,35.86
2018-06-07T10:30:02.973Z,35.97
2018-06-07T10:31:02.995Z,36.08
2018-06-07T10:32:03.039Z,36.21
2018-06-07T10:33:03.052Z,36.28
2018-06-07T10:34:02.849Z,36.24
2018-06-07T10:35:03.133Z,36.33
2018-06-07T10:36:02.603Z,36.39
2018-06-07T10:37:02.913Z,36.45
2018-06-07T10:38:03.227Z,36.58
2018-06-07T10:39:03.228Z,36.61
2018-06-07T10:40:02.741Z,36.7
2018-06-07T10:41:03.021Z,36.74
2018-06-07T10:42:03.323Z,36.81
2018-06-07T10:43:03.376Z,36.74
2018-06-07T10:44:03.413Z,36.89
2018-06-07T10:45:03.417Z,36.96
2018-06-07T10:46:03.196Z,36.92
2018-06-07T10:47:03.491Z,37.03
2018-06-07T10:48:03.273Z,37.02
2018-06-07T10:49:03.592Z,37.13
2018-06-07T10:50:03.309Z,37.11
2018-06-07T10:51:03.343Z,37.2
2018-06-07T10:52:03.405Z,37.25
2018-06-07T10:53:03.404Z,37.29
2018-06-07T10:54:03.756Z,37.4
2018-06-07T10:55:03.205Z,37.42
2018-06-07T10:56:03.764Z,37.42
2018-06-07T10:57:03.549Z,37.55
2018-06-07T10:58:03.838Z,37.59
2018-06-07T10:59:03.890Z,37.51
2018-06-07T11:00:03.924Z,37.59
2018-06-07T11:01:03.947Z,37.58
2018-06-07T11:02:03.714Z,37.64
2018-06-07T11:03:03.746Z,37.7
2018-06-07T11:04:03.750Z,37.77
2018-06-07T11:05:04.074Z,37.74
2018-06-07T11:06:03.824Z,37.77
2018-06-07T11:07:03.601Z,37.8
2018-06-07T11:08:03.904Z,37.92
2018-06-07T11:09:03.916Z,37.9
2018-06-07T11:10:03.971Z,38.05
2018-06-07T11:11:04.267Z,38.12
2018-06-07T11:12:04.033Z,38.06
2018-06-07T11:13:04.335Z,38.12
2018-06-07T11:14:04.088Z,38.17
2018-06-07T11:15:04.143Z,38.26
2018-06-07T11:16:04.143Z,38.28
2018-06-07T11:17:04.202Z,38.38
2018-06-07T11:18:04.488Z,38.34
2018-06-07T11:19:04.257Z,38.42
2018-06-07T11:20:04.302Z,38.33
2018-06-07T11:21:04.319Z,38.49
2018-06-07T11:22:04.629Z,38.5
2018-06-07T11:23:04.385Z,38.58
2018-06-07T11:24:04.534Z,38.62
2018-06-07T11:25:04.741Z,38.67
2018-06-07T11:26:04.509Z,38.69
2018-06-07T11:27:04.791Z,38.74
2018-06-07T11:28:04.847Z,38.82
2018-06-07T11:29:04.928Z,38.87
2018-06-07T11:30:04.899Z,38.86
2018-06-07T11:31:04.914Z,38.99
2018-06-07T11:32:04.700Z,39.07
2018-06-07T11:33:04.728Z,39
2018-06-07T11:34:05.018Z,39.11
2018-06-07T11:35:04.784Z,39.12
2018-06-07T11:36:05.099Z,39.19
2018-06-07T11:37:05.120Z,39.24
2018-06-07T11:38:05.173Z,39.21
2018-06-07T11:39:05.185Z,39.17
2018-06-07T11:40:05.220Z,39.31
2018-06-07T11:41:05.260Z,39.33
2018-06-07T11:42:04.770Z,39.34
2018-06-07T11:43:05.352Z,39.44
2018-06-07T11:44:05.103Z,39.51
2018-06-07T11:45:05.148Z,39.58
2018-06-07T11:46:05.452Z,39.67
2018-06-07T11:47:05.486Z,39.7
2018-06-07T11:48:05.526Z,39.63
2018-06-07T11:49:05.671Z,39.77
2018-06-07T11:50:05.579Z,39.77
2018-06-07T11:51:05.606Z,39.86
2018-06-07T11:52:05.117Z,39.81
2018-06-07T11:53:05.681Z,39.87
2018-06-07T11:54:05.715Z,39.93
2018-06-07T11:55:05.207Z,39.99
2018-06-07T11:56:05.800Z,40.05
2018-06-07T11:57:05.819Z,40.02
2018-06-07T11:58:05.316Z,40.05
2018-06-07T11:59:05.612Z,40.18
2018-06-07T12:00:05.923Z,40.12
2018-06-07T12:01:05.955Z,40.21
2018-06-07T12:02:05.753Z,40.27
2018-06-07T12:03:05.477Z,40.3
2018-06-07T12:04:05.820Z,40.38
2018-06-07T12:05:05.842Z,40.47
2018-06-07T12:06:05.899Z,40.51
2018-06-07T12:07:05.876Z,40.51
2018-06-07T12:08:06.179Z,40.59
2018-06-07T12:09:05.967Z,40.62
2018-06-07T12:10:06.009Z,40.66
2018-06-07T12:11:06.044Z,40.66
2018-06-07T12:12:06.342Z,40.81
2018-06-07T12:13:06.386Z,40.77
2018-06-07T12:14:06.162Z,40.75
2018-06-07T12:15:06.457Z,40.82
2018-06-07T12:16:06.504Z,40.87
2018-06-07T12:17:06.244Z,40.87
2018-06-07T12:18:06.534Z,40.95
2018-06-07T12:19:06.602Z,40.88
2018-06-07T12:20:06.627Z,40.91
2018-06-07T12:21:06.373Z,40.95
2018-06-07T12:22:06.717Z,41
2018-06-07T12:23:06.727Z,41.14
2018-06-07T12:24:06.765Z,41.09
2018-06-07T12:25:06.594Z,41.16
2018-06-07T12:26:06.589Z,41.16
2018-06-07T12:27:06.603Z,41.24
2018-06-07T12:28:06.911Z,41.28
2018-06-07T12:29:06.676Z,41.24
2018-06-07T12:30:06.496Z,41.41
2018-06-07T12:31:06.475Z,41.4
2018-06-07T12:32:06.516Z,41.37
2018-06-07T12:33:06.812Z,41.38
2018-06-07T12:34:06.576Z,41.53
2018-06-07T12:35:07.005Z,41.5
2018-06-07T12:36:06.924Z,41.55
2018-06-07T12:37:06.971Z,41.63
2018-06-07T12:38:07.271Z,41.71
2018-06-07T12:39:07.018Z,41.7
2018-06-07T12:40:07.799Z,41.8
2018-06-07T12:41:07.388Z,41.78
2018-06-07T12:42:07.139Z,41.83
2018-06-07T12:43:07.183Z,41.87
2018-06-07T12:44:07.209Z,41.91
2018-06-07T12:45:06.977Z,41.9
2018-06-07T12:46:07.295Z,41.98
2018-06-07T12:47:07.895Z,42.04
2018-06-07T12:48:07.368Z,41.97
2018-06-07T12:49:07.666Z,41.99
2018-06-07T12:50:07.744Z,42.04
2018-06-07T12:51:07.755Z,42.07
2018-06-07T12:52:07.492Z,42.04
2018-06-07T12:53:07.815Z,41.98
2018-06-07T12:54:07.830Z,42.1
2018-06-07T12:55:07.674Z,42.13
2018-06-07T12:56:07.915Z,42.14
2018-06-07T12:57:07.409Z,42.13